Fairfax, VA

5:40 AM EDT on August 30, 2016 (GMT -0400)
Fairfax - Kings Park West (II) | | Change Station

Elev 397 ft 38.81 °N, 77.30 °W | Updated 1 second ago

Scattered Clouds
Scattered Clouds
70.3 °F
Feels Like 72 °F
N
0.0
Wind Variable Wind from North
Gusts 0.0 mph

Today
High -- | Low -- °F
--% Chance of Precip.
Yesterday
High -- | Low -- °F
Precip. -- in
Pressure 30.12 in
Visibility 10.0 miles
Clouds Scattered Clouds 5500 ft
Heat Index 72 °F
Dew Point 63 °F
Humidity 77%
Rainfall 0.00 in
Snow Depth Not available.
6:36 AM 7:41 PM
Waning Crescent, 4% visible
METAR KDAA 300858Z AUTO VRB01KT 10SM SCT055 23/18 A3011 RMK AO2 SLP199 T02320178 50001
Pressure 30.12 in
Visibility 10.0 miles
Clouds Scattered Clouds 5500 ft
Heat Index 72 °F
Dew Point 63 °F
Humidity 77%
Rainfall 0.00 in
Snow Depth Not available.
6:36 AM 7:41 PM
Waning Crescent, 4% visible
METAR KDAA 300858Z AUTO VRB01KT 10SM SCT055 23/18 A3011 RMK AO2 SLP199 T02320178 50001

10-Day Weather Forecast

Almanac

Astronomy

Aug. 30, 2016 Rise Set
Actual Time
Civil Twilight
Nautical Twilight
Astronomical Twilight
Moon
Length of Visible Light
Length of Day
Tomorrow will be .
, % of the Moon is Illuminated

Today's Extremes

State Highs State Lows

Community

WunderPhotos

Upload Photos

1,935,795 photos uploaded!

WunderBlog® & News

Nearby

Air Quality

  Air Quality AQ Index Pollutant
Not available.

Snow Depth

Station Depth Elevation

Earthquake Activity

City Distance Mag. Time & Date
Minimum magnitude displayed is 2.5.

Coastal Water Temperatures

Place Temperature

Stations

Nearby Weather Stations

Station Location Temp. Windchill Dew Point Humidity Wind Precip. Elev Updated Type
                   

Watches & Warnings

There are currently no watches in effect.